Time;durP1;ratioP1;P1;durP2;ratioP2;P2;SDS_P1;SDS_P2;PMS_P1;PMS_P2;Temp;Humidity;BMP_temperature;BMP_pressure;BME280_temperature;BME280_humidity;BME280_pressure;Samples;Min_cycle;Max_cycle;Signal;HPM_P1;HPM_P2
2023/05/15 17:38:07;;;;;;;;;;;;;;;16.79;49.41;97534.28;5052771;23;19956;-65
2023/05/15 17:40:32;;;;;;;;;;;;;;;16.60;50.14;97539.78;4859848;29;19975;-66
2023/05/15 17:42:58;;;;;;;;;;;;;;;16.54;50.78;97545.72;4869093;29;20329;-65
2023/05/15 17:45:23;;;;;;;;;;;;;;;16.45;51.86;97555.44;4845618;29;19972;-66
2023/05/15 17:47:48;;;;;;;;;;;;;;;16.12;53.11;97546.47;4863129;29;19927;-65
2023/05/15 17:50:13;;;;;;;;;;;;;;;16.19;52.71;97546.69;4861176;29;19931;-65
2023/05/15 17:52:39;;;;;;;;;;;;;;;16.19;53.37;97551.97;4861370;29;19923;-64
2023/05/15 17:55:04;;;;;;;;;;;;;;;16.15;53.65;97556.75;4860688;29;20003;-65
2023/05/15 17:57:30;;;;;;;;;;;;;;;15.99;55.26;97564.56;4845344;29;19916;-64
2023/05/15 17:59:55;;;;;;;;;;;;;;;16.07;54.85;97559.31;4845006;29;19920;-66
2023/05/15 18:02:20;;;;;;;;;;;;;;;16.11;55.00;97564.16;4861829;29;20393;-66
2023/05/15 18:04:46;;;;;;;;;;;;;;;16.15;54.94;97572.63;4860765;29;20386;-66
2023/05/15 18:07:11;;;;;;;;;;;;;;;15.92;55.83;97582.03;4856952;29;20454;-66
2023/05/15 18:09:38;;;;;;;;;;;;;;;15.87;56.14;97579.88;4859819;29;20450;-65
2023/05/15 18:12:03;;;;;;;;;;;;;;;15.71;58.42;97577.91;4860842;29;19955;-66
2023/05/15 18:14:28;;;;;;;;;;;;;;;15.57;58.98;97578.44;4845034;29;19920;-64
2023/05/15 18:16:54;;;;;;;;;;;;;;;15.47;60.45;97577.66;4860001;29;19956;-64
2023/05/15 18:19:19;;;;;;;;;;;;;;;15.39;59.72;97578.44;4843032;29;19920;-64
2023/05/15 18:21:44;;;;;;;;;;;;;;;15.30;60.42;97580.16;4861647;29;19920;-63
2023/05/15 18:24:10;;;;;;;;;;;;;;;15.20;60.41;97587.31;4860082;29;20434;-63
2023/05/15 18:26:35;;;;;;;;;;;;;;;15.19;59.77;97583.00;4859652;29;20817;-63
2023/05/15 18:29:00;;;;;;;;;;;;;;;15.02;59.89;97584.66;4858326;29;19920;-64
2023/05/15 18:31:26;;;;;;;;;;;;;;;14.92;61.39;97584.69;4858353;29;20450;-63
2023/05/15 18:33:51;;;;;;;;;;;;;;;14.85;61.48;97575.69;4866964;29;19927;-64
2023/05/15 18:36:17;;;;;;;;;;;;;;;14.74;61.46;97573.28;4867230;29;20438;-64
2023/05/15 18:38:42;;;;;;;;;;;;;;;14.74;60.27;97581.19;4838557;29;19924;-65
2023/05/15 18:41:07;;;;;;;;;;;;;;;14.75;61.31;97582.84;4858566;29;19916;-65
2023/05/15 18:43:32;;;;;;;;;;;;;;;14.72;60.29;97578.69;4860118;29;20424;-65
2023/05/15 18:45:58;;;;;;;;;;;;;;;14.76;60.07;97589.78;4859400;29;19927;-65
2023/05/15 18:48:23;;;;;;;;;;;;;;;14.77;57.79;97580.91;4857002;29;19928;-65
2023/05/15 18:50:48;;;;;;;;;;;;;;;14.74;56.94;97570.63;4860390;29;19980;-65
2023/05/15 18:53:13;;;;;;;;;;;;;;;14.71;57.36;97576.19;4861903;29;20018;-64
2023/05/15 18:55:39;;;;;;;;;;;;;;;14.75;58.09;97579.38;4861476;29;19924;-63
2023/05/15 18:58:04;;;;;;;;;;;;;;;14.72;58.73;97577.84;4857373;29;19920;-63
2023/05/15 19:00:29;;;;;;;;;;;;;;;14.70;58.56;97577.19;4842302;29;19923;-63
2023/05/15 19:02:55;;;;;;;;;;;;;;;14.70;57.79;97583.28;4858791;29;19935;-63
2023/05/15 19:05:20;;;;;;;;;;;;;;;14.76;56.19;97579.22;4859359;29;19916;-62
2023/05/15 19:07:45;;;;;;;;;;;;;;;14.74;58.89;97593.56;4859387;29;19920;-63
2023/05/15 19:10:10;;;;;;;;;;;;;;;14.51;60.62;97607.09;4860585;29;19949;-62
2023/05/15 19:12:35;;;;;;;;;;;;;;;14.43;62.59;97602.53;4842262;29;19920;-63
2023/05/15 19:15:01;;;;;;;;;;;;;;;14.36;63.42;97603.25;4857387;29;19916;-63
2023/05/15 19:17:26;;;;;;;;;;;;;;;14.31;62.96;97595.75;4858784;29;19984;-63
2023/05/15 19:19:52;;;;;;;;;;;;;;;14.25;63.34;97599.81;4857370;29;19923;-64
2023/05/15 19:22:17;;;;;;;;;;;;;;;14.28;62.60;97596.06;4838979;29;19920;-64
2023/05/15 19:24:42;;;;;;;;;;;;;;;14.32;62.69;97607.16;4854647;29;19984;-65
2023/05/15 19:27:08;;;;;;;;;;;;;;;14.29;62.87;97608.25;4835156;29;19979;-65
2023/05/15 19:29:33;;;;;;;;;;;;;;;14.29;63.05;97610.91;4825006;29;20149;-65
2023/05/15 19:31:58;;;;;;;;;;;;;;;14.20;64.03;97614.38;4849191;29;20019;-63
2023/05/15 19:34:24;;;;;;;;;;;;;;;14.12;65.28;97614.28;4840956;29;19923;-63
2023/05/15 19:36:49;;;;;;;;;;;;;;;14.14;65.98;97613.16;4864042;29;19968;-63
2023/05/15 19:39:14;;;;;;;;;;;;;;;14.12;67.10;97616.91;4857526;29;19976;-63
2023/05/15 19:41:40;;;;;;;;;;;;;;;14.15;67.31;97617.47;4856405;29;19924;-64
2023/05/15 19:44:07;;;;;;;;;;;;;;;14.07;68.36;97619.94;4858049;29;19934;-63
2023/05/15 19:46:32;;;;;;;;;;;;;;;14.06;68.53;97625.38;4858918;29;19927;-64
